Time;durP1;ratioP1;P1;durP2;ratioP2;P2;SDS_P1;SDS_P2;PMS_P1;PMS_P2;Temp;Humidity;BMP_temperature;BMP_pressure;BME280_temperature;BME280_humidity;BME280_pressure;Samples;Min_cycle;Max_cycle;Signal;HPM_P1;HPM_P2
2022/04/29 00:02:08;;;;;;;;;;;8.30;95.70;;;;;;5013177;28;39512;-52
2022/04/29 00:04:36;;;;;;;;;;;8.30;95.80;;;;;;5013618;28;39775;-54
2022/04/29 00:07:03;;;;;;;;;;;8.40;95.80;;;;;;5014203;28;35818;-53
2022/04/29 00:09:32;;;;;;;;;;;8.30;95.70;;;;;;5013856;28;37915;-53
2022/04/29 00:11:59;;;;;;;;;;;8.40;95.90;;;;;;5014085;28;38904;-53
2022/04/29 00:14:26;;;;;;;;;;;8.30;95.90;;;;;;5014147;28;39296;-52
2022/04/29 00:16:53;;;;;;;;;;;8.30;95.80;;;;;;5014791;28;37726;-53
2022/04/29 00:19:21;;;;;;;;;;;8.30;95.90;;;;;;5014022;28;36926;-53
2022/04/29 00:21:48;;;;;;;;;;;8.20;96.20;;;;;;5012222;28;36497;-53
2022/04/29 00:24:16;;;;;;;;;;;8.10;96.40;;;;;;5015170;28;38535;-52
2022/04/29 00:26:44;;;;;;;;;;;8.00;96.60;;;;;;5014096;28;37288;-52
2022/04/29 00:29:11;;;;;;;;;;;8.00;96.80;;;;;;5016479;28;36921;-52
2022/04/29 00:31:39;;;;;;;;;;;8.00;96.90;;;;;;5017266;28;36526;-53
2022/04/29 00:34:06;;;;;;;;;;;8.00;96.90;;;;;;5016767;28;37928;-51
2022/04/29 00:36:33;;;;;;;;;;;8.00;96.90;;;;;;5017102;28;36086;-54
2022/04/29 00:39:00;;;;;;;;;;;8.10;97.00;;;;;;5018058;28;36470;-53
2022/04/29 00:41:27;;;;;;;;;;;8.10;96.90;;;;;;5016901;28;38832;-51
2022/04/29 00:44:03;;;;;;;;;;;8.00;96.90;;;;;;5017812;28;38169;-53
2022/04/29 00:46:33;;;;;;;;;;;8.00;96.90;;;;;;5017785;28;36939;-52
2022/04/29 00:49:00;;;;;;;;;;;8.10;96.90;;;;;;5017677;28;35904;-53
2022/04/29 00:51:27;;;;;;;;;;;8.00;96.90;;;;;;5014825;28;37970;-53
2022/04/29 00:53:56;;;;;;;;;;;8.00;96.80;;;;;;5014940;28;37463;-53
2022/04/29 00:56:24;;;;;;;;;;;8.00;97.00;;;;;;5017835;28;37035;-52
2022/04/29 00:58:54;;;;;;;;;;;7.90;97.10;;;;;;5015999;28;37553;-52
2022/04/29 01:01:24;;;;;;;;;;;7.80;97.10;;;;;;5017149;28;37820;-54
2022/04/29 01:03:52;;;;;;;;;;;7.80;97.30;;;;;;5016943;28;37496;-52
2022/04/29 01:06:19;;;;;;;;;;;7.80;97.20;;;;;;5017702;28;37356;-53
2022/04/29 01:08:46;;;;;;;;;;;7.70;97.40;;;;;;5017142;28;35946;-52
2022/04/29 01:11:13;;;;;;;;;;;7.70;97.70;;;;;;5017579;28;38054;-54
2022/04/29 01:13:41;;;;;;;;;;;7.70;97.70;;;;;;5016819;28;38906;-54
2022/04/29 01:16:08;;;;;;;;;;;7.70;97.90;;;;;;5016920;28;39238;-51
2022/04/29 01:18:37;;;;;;;;;;;8.10;98.00;;;;;;5017503;28;37512;-52
2022/04/29 01:21:05;;;;;;;;;;;7.70;97.90;;;;;;5015387;28;37763;-54
2022/04/29 01:23:34;;;;;;;;;;;7.70;98.00;;;;;;5014671;28;39351;-53
2022/04/29 01:26:01;;;;;;;;;;;7.70;98.20;;;;;;5017145;28;37108;-53
2022/04/29 01:28:29;;;;;;;;;;;7.70;98.20;;;;;;5017396;28;35081;-53
2022/04/29 01:30:58;;;;;;;;;;;7.70;98.30;;;;;;5017120;28;38035;-53
2022/04/29 01:33:25;;;;;;;;;;;7.70;98.40;;;;;;5016275;28;36713;-53
2022/04/29 01:35:52;;;;;;;;;;;7.70;98.50;;;;;;5014372;28;37367;-53
2022/04/29 01:38:20;;;;;;;;;;;7.70;98.50;;;;;;5015612;28;36694;-54
2022/04/29 01:40:48;;;;;;;;;;;7.70;98.70;;;;;;5016804;28;40348;-53
2022/04/29 01:43:17;;;;;;;;;;;7.60;98.70;;;;;;5017198;28;37860;-53
2022/04/29 01:45:45;;;;;;;;;;;7.60;98.70;;;;;;5015102;28;38439;-53
2022/04/29 01:48:12;;;;;;;;;;;7.60;98.70;;;;;;5016683;28;36485;-53
2022/04/29 01:50:39;;;;;;;;;;;7.60;98.70;;;;;;5016185;28;37516;-53
2022/04/29 01:53:06;;;;;;;;;;;7.50;98.70;;;;;;5015992;28;37549;-54
2022/04/29 01:55:33;;;;;;;;;;;7.50;98.80;;;;;;5016722;28;38012;-54
2022/04/29 01:58:01;;;;;;;;;;;7.50;98.80;;;;;;5014721;28;36417;-52
2022/04/29 02:00:28;;;;;;;;;;;7.50;98.70;;;;;;5016757;28;38098;-52
2022/04/29 02:02:55;;;;;;;;;;;7.60;98.70;;;;;;5016917;28;38110;-52
2022/04/29 02:05:23;;;;;;;;;;;7.60;98.50;;;;;;5014555;28;36781;-53
2022/04/29 02:07:50;;;;;;;;;;;7.50;98.60;;;;;;5016211;28;36491;-54
2022/04/29 02:10:17;;;;;;;;;;;7.50;98.80;;;;;;5014409;28;36506;-54
2022/04/29 02:12:45;;;;;;;;;;;7.50;98.70;;;;;;5015855;28;37629;-52
2022/04/29 02:15:14;;;;;;;;;;;7.50;98.60;;;;;;5016900;28;37379;-53
2022/04/29 02:17:41;;;;;;;;;;;7.40;98.80;;;;;;5015412;28;36443;-52
2022/04/29 02:20:08;;;;;;;;;;;7.50;98.90;;;;;;5016861;28;36382;-53
2022/04/29 02:22:36;;;;;;;;;;;7.50;98.90;;;;;;5016517;28;38093;-54
2022/04/29 02:25:03;;;;;;;;;;;7.50;98.90;;;;;;5017201;28;37084;-53
2022/04/29 02:27:30;;;;;;;;;;;7.50;98.90;;;;;;5017321;28;35887;-58
2022/04/29 02:29:57;;;;;;;;;;;7.60;98.90;;;;;;5015226;28;38685;-58
2022/04/29 02:32:25;;;;;;;;;;;7.60;98.60;;;;;;5016147;28;37793;-58
2022/04/29 02:34:53;;;;;;;;;;;7.60;98.50;;;;;;5015704;28;36028;-58
2022/04/29 02:37:20;;;;;;;;;;;7.70;98.30;;;;;;5017343;28;36155;-58
2022/04/29 02:39:47;;;;;;;;;;;7.70;98.10;;;;;;5016875;28;37669;-58
2022/04/29 02:42:14;;;;;;;;;;;7.70;98.10;;;;;;5016115;28;37420;-58
2022/04/29 02:44:41;;;;;;;;;;;7.70;98.10;;;;;;5015208;28;37983;-58
2022/04/29 02:47:08;;;;;;;;;;;7.70;98.00;;;;;;5016987;28;38596;-58
2022/04/29 02:49:38;;;;;;;;;;;7.70;98.00;;;;;;5016017;28;37979;-58
2022/04/29 02:52:05;;;;;;;;;;;7.70;98.10;;;;;;5015306;28;37920;-58
2022/04/29 02:54:33;;;;;;;;;;;7.70;98.10;;;;;;5015562;28;37799;-58
2022/04/29 02:57:00;;;;;;;;;;;7.60;98.30;;;;;;5015614;28;36297;-58
2022/04/29 02:59:27;;;;;;;;;;;7.60;98.20;;;;;;5015486;28;37944;-58
2022/04/29 03:01:54;;;;;;;;;;;7.60;98.10;;;;;;5015794;28;36500;-58
2022/04/29 03:04:21;;;;;;;;;;;7.60;98.20;;;;;;5015741;28;38450;-58
2022/04/29 03:06:49;;;;;;;;;;;7.60;98.30;;;;;;5013310;28;36172;-58
2022/04/29 03:09:17;;;;;;;;;;;7.60;98.20;;;;;;5016291;28;34832;-58
2022/04/29 03:11:44;;;;;;;;;;;7.60;98.10;;;;;;5013011;28;38334;-58
2022/04/29 03:14:11;;;;;;;;;;;7.70;98.20;;;;;;5013019;28;37825;-58
2022/04/29 03:16:38;;;;;;;;;;;7.70;98.30;;;;;;5014892;28;36258;-58
2022/04/29 03:19:05;;;;;;;;;;;7.70;98.30;;;;;;5015394;28;37806;-57
2022/04/29 03:21:33;;;;;;;;;;;7.70;98.30;;;;;;5012577;28;39987;-58
2022/04/29 03:24:03;;;;;;;;;;;7.70;98.40;;;;;;5014115;28;37382;-58
2022/04/29 03:26:30;;;;;;;;;;;7.70;98.70;;;;;;5015324;28;38455;-58
2022/04/29 03:28:58;;;;;;;;;;;7.70;98.90;;;;;;5014659;28;39122;-58
2022/04/29 03:31:25;;;;;;;;;;;7.70;98.70;;;;;;5014352;28;38513;-58
2022/04/29 03:33:52;;;;;;;;;;;7.70;98.60;;;;;;5014951;28;36542;-58
2022/04/29 03:36:19;;;;;;;;;;;7.70;98.60;;;;;;5014598;28;36959;-58
2022/04/29 03:38:46;;;;;;;;;;;7.70;98.50;;;;;;5014790;28;38857;-58
2022/04/29 03:41:14;;;;;;;;;;;7.70;98.50;;;;;;5015511;28;38146;-58
2022/04/29 03:43:41;;;;;;;;;;;7.80;98.50;;;;;;5016628;28;37284;-58
2022/04/29 03:46:08;;;;;;;;;;;7.80;98.70;;;;;;5015728;28;37139;-58
2022/04/29 03:51:16;;;;;;;;;;;7.60;98.50;;;;;;5012936;28;39447;-53
2022/04/29 03:53:43;;;;;;;;;;;7.50;98.90;;;;;;5014589;28;37079;-51
2022/04/29 03:56:10;;;;;;;;;;;7.50;99.20;;;;;;5016124;28;36362;-54
2022/04/29 03:58:39;;;;;;;;;;;7.60;99.10;;;;;;5013880;28;36596;-52
2022/04/29 04:01:06;;;;;;;;;;;7.60;98.80;;;;;;5013992;28;36640;-52
2022/04/29 04:03:33;;;;;;;;;;;7.70;98.70;;;;;;5015785;28;37093;-52
2022/04/29 04:08:45;;;;;;;;;;;7.70;99.00;;;;;;5017806;28;39846;-52
2022/04/29 04:11:12;;;;;;;;;;;7.70;98.80;;;;;;5018274;28;36982;-54
2022/04/29 04:13:41;;;;;;;;;;;7.70;99.00;;;;;;5018465;28;37393;-53
2022/04/29 04:16:08;;;;;;;;;;;7.60;99.00;;;;;;5019135;28;35623;-53
2022/04/29 04:18:35;;;;;;;;;;;7.60;99.40;;;;;;5016496;28;38004;-53
2022/04/29 04:21:02;;;;;;;;;;;7.60;99.40;;;;;;5018514;28;37873;-54
2022/04/29 04:23:30;;;;;;;;;;;7.60;99.50;;;;;;5017181;28;37232;-54
2022/04/29 04:25:57;;;;;;;;;;;7.60;99.60;;;;;;5018863;28;35425;-54
2022/04/29 04:28:24;;;;;;;;;;;7.70;99.90;;;;;;5017007;28;37981;-53
2022/04/29 04:30:53;;;;;;;;;;;7.70;99.80;;;;;;5016825;28;38127;-54
2022/04/29 04:33:20;;;;;;;;;;;7.70;99.80;;;;;;5017258;28;37978;-53
2022/04/29 04:35:47;;;;;;;;;;;7.70;99.90;;;;;;5016886;28;36516;-52
2022/04/29 04:38:14;;;;;;;;;;;7.70;99.90;;;;;;5017166;28;37624;-52
2022/04/29 04:40:42;;;;;;;;;;;7.60;99.90;;;;;;5017697;28;39204;-53
2022/04/29 04:43:09;;;;;;;;;;;7.70;99.90;;;;;;5016307;28;37218;-54
2022/04/29 04:45:37;;;;;;;;;;;7.80;99.90;;;;;;5015369;28;35130;-54
2022/04/29 04:48:06;;;;;;;;;;;7.80;99.90;;;;;;5014583;28;36877;-52
2022/04/29 04:50:33;;;;;;;;;;;7.90;99.90;;;;;;5015858;28;37739;-52
2022/04/29 04:53:00;;;;;;;;;;;8.00;99.90;;;;;;5017320;28;37457;-52
2022/04/29 04:55:27;;;;;;;;;;;8.00;99.70;;;;;;5014890;28;37031;-56
2022/04/29 04:57:54;;;;;;;;;;;8.10;99.40;;;;;;5014536;28;37106;-54
2022/04/29 05:00:22;;;;;;;;;;;8.20;99.50;;;;;;5013565;28;37947;-53
2022/04/29 05:02:49;;;;;;;;;;;8.20;99.50;;;;;;5015448;28;35963;-51
2022/04/29 05:05:17;;;;;;;;;;;8.30;99.30;;;;;;5014291;28;36956;-53
2022/04/29 05:07:44;;;;;;;;;;;8.40;99.30;;;;;;5016970;28;37618;-54
2022/04/29 05:10:12;;;;;;;;;;;8.40;99.10;;;;;;5015508;28;36807;-53
2022/04/29 05:12:40;;;;;;;;;;;8.50;99.20;;;;;;5016175;28;40013;-58
2022/04/29 05:15:08;;;;;;;;;;;8.50;99.10;;;;;;5016539;28;36118;-53
2022/04/29 05:17:35;;;;;;;;;;;8.50;99.00;;;;;;5017867;28;37800;-53
2022/04/29 05:20:02;;;;;;;;;;;8.60;99.10;;;;;;5013395;28;38222;-52
2022/04/29 05:22:30;;;;;;;;;;;8.60;98.90;;;;;;5014801;28;39098;-53
2022/04/29 05:24:57;;;;;;;;;;;8.70;99.20;;;;;;5015616;28;36093;-52
2022/04/29 05:27:24;;;;;;;;;;;8.70;99.50;;;;;;5016319;28;36515;-53
2022/04/29 05:29:52;;;;;;;;;;;8.80;99.70;;;;;;5015975;28;38178;-52
2022/04/29 05:32:19;;;;;;;;;;;8.90;99.90;;;;;;5015597;28;38115;-53
2022/04/29 05:34:47;;;;;;;;;;;9.00;99.70;;;;;;5015123;28;35915;-54
2022/04/29 05:37:14;;;;;;;;;;;9.10;99.60;;;;;;5016550;28;39485;-52
2022/04/29 05:42:27;;;;;;;;;;;9.20;99.00;;;;;;5017260;28;38194;-52
2022/04/29 05:44:55;;;;;;;;;;;9.20;98.90;;;;;;5015071;28;36300;-52
2022/04/29 05:47:22;;;;;;;;;;;9.10;98.60;;;;;;5015529;28;37619;-53
2022/04/29 05:49:49;;;;;;;;;;;9.00;98.70;;;;;;5015414;28;38295;-54
2022/04/29 05:52:16;;;;;;;;;;;9.10;99.00;;;;;;5015627;28;37192;-53
2022/04/29 05:54:45;;;;;;;;;;;9.10;99.20;;;;;;5017395;28;37342;-53
2022/04/29 05:57:12;;;;;;;;;;;9.10;99.10;;;;;;5014800;28;36711;-53
2022/04/29 05:59:39;;;;;;;;;;;9.10;99.30;;;;;;5015337;28;38962;-53
2022/04/29 06:02:06;;;;;;;;;;;9.20;99.60;;;;;;5014130;28;36011;-53
2022/04/29 06:04:33;;;;;;;;;;;9.20;99.90;;;;;;5015463;28;36957;-53
2022/04/29 06:07:00;;;;;;;;;;;9.30;99.50;;;;;;5014222;28;38514;-54
2022/04/29 06:09:27;;;;;;;;;;;9.30;99.00;;;;;;5012978;28;38931;-54
2022/04/29 06:11:56;;;;;;;;;;;9.30;99.20;;;;;;5016147;28;37687;-53
2022/04/29 06:14:23;;;;;;;;;;;9.40;99.40;;;;;;5014938;28;36131;-54
2022/04/29 06:16:50;;;;;;;;;;;9.50;99.60;;;;;;5015020;28;37838;-51
2022/04/29 06:19:17;;;;;;;;;;;9.50;98.90;;;;;;5014372;28;37843;-54
2022/04/29 06:21:44;;;;;;;;;;;9.60;98.70;;;;;;5015909;28;37611;-52
2022/04/29 06:24:11;;;;;;;;;;;9.60;98.30;;;;;;5014844;28;36751;-53
2022/04/29 06:26:38;;;;;;;;;;;9.60;98.20;;;;;;5012314;28;37842;-52
2022/04/29 06:29:07;;;;;;;;;;;9.60;98.10;;;;;;5016105;28;38604;-54
2022/04/29 06:31:34;;;;;;;;;;;9.60;98.00;;;;;;5013756;28;37504;-54
2022/04/29 06:34:01;;;;;;;;;;;9.70;98.20;;;;;;5013358;28;37656;-53
2022/04/29 06:36:28;;;;;;;;;;;9.70;98.30;;;;;;5014666;28;39951;-52
2022/04/29 06:38:55;;;;;;;;;;;9.70;98.50;;;;;;5013651;28;38306;-54
2022/04/29 06:41:22;;;;;;;;;;;9.80;98.50;;;;;;5016054;28;37277;-53
2022/04/29 06:43:49;;;;;;;;;;;9.90;97.90;;;;;;5015906;28;36154;-52
2022/04/29 06:46:17;;;;;;;;;;;9.90;98.10;;;;;;5014418;28;37895;-54
2022/04/29 06:48:45;;;;;;;;;;;10.00;97.50;;;;;;5016881;28;38766;-54
2022/04/29 06:51:12;;;;;;;;;;;10.00;98.10;;;;;;5015282;28;37224;-52
2022/04/29 06:53:40;;;;;;;;;;;10.10;98.30;;;;;;5014657;28;36229;-54
2022/04/29 06:56:07;;;;;;;;;;;10.30;98.30;;;;;;5014985;28;37844;-51
2022/04/29 06:58:34;;;;;;;;;;;10.30;97.20;;;;;;5014407;28;40717;-52
2022/04/29 07:01:01;;;;;;;;;;;10.30;96.60;;;;;;5013986;28;36864;-52
2022/04/29 07:03:30;;;;;;;;;;;10.40;96.50;;;;;;5003318;28;35112;-53
2022/04/29 07:05:59;;;;;;;;;;;10.30;95.60;;;;;;5005743;28;36647;-53
2022/04/29 07:08:26;;;;;;;;;;;10.30;95.90;;;;;;5007320;28;37908;-53
2022/04/29 07:10:53;;;;;;;;;;;10.30;96.80;;;;;;5005381;28;38538;-53
2022/04/29 07:13:20;;;;;;;;;;;10.30;96.30;;;;;;5005538;28;36604;-55
2022/04/29 07:15:48;;;;;;;;;;;10.30;96.10;;;;;;5004971;28;37985;-53
2022/04/29 07:18:20;;;;;;;;;;;10.30;95.90;;;;;;5006160;28;39728;-52
2022/04/29 07:20:48;;;;;;;;;;;10.30;95.80;;;;;;5006298;28;38910;-58
2022/04/29 07:23:15;;;;;;;;;;;10.30;95.40;;;;;;5007615;28;37752;-58
2022/04/29 07:25:42;;;;;;;;;;;10.30;94.90;;;;;;5009398;28;37766;-58
2022/04/29 07:28:12;;;;;;;;;;;10.20;94.70;;;;;;5009569;28;37507;-58
2022/04/29 07:30:39;;;;;;;;;;;10.20;94.70;;;;;;5007579;28;37868;-58
2022/04/29 07:33:06;;;;;;;;;;;10.20;94.80;;;;;;5007103;28;38228;-58
2022/04/29 07:43:48;;;;;;;;;;;10.40;94.90;;;;;;5012396;28;38402;-59
2022/04/29 07:46:16;;;;;;;;;;;10.50;95.00;;;;;;5010394;28;38515;-59
2022/04/29 07:48:44;;;;;;;;;;;10.60;93.90;;;;;;5011783;28;36696;-59
2022/04/29 07:51:11;;;;;;;;;;;10.70;93.30;;;;;;5010023;28;36572;-59
2022/04/29 07:53:39;;;;;;;;;;;10.70;93.40;;;;;;5011783;28;36315;-59
2022/04/29 07:56:06;;;;;;;;;;;10.70;93.50;;;;;;5013703;28;39032;-59
2022/04/29 07:58:34;;;;;;;;;;;10.70;92.50;;;;;;5013834;28;37680;-59
2022/04/29 08:01:01;;;;;;;;;;;10.80;92.40;;;;;;5010615;28;38786;-59
2022/04/29 08:03:28;;;;;;;;;;;10.80;93.00;;;;;;5010661;28;35130;-59
2022/04/29 08:05:55;;;;;;;;;;;10.90;92.90;;;;;;5010276;28;38937;-59
2022/04/29 08:08:23;;;;;;;;;;;11.00;92.50;;;;;;5011524;28;36584;-59
2022/04/29 08:10:54;;;;;;;;;;;11.00;91.70;;;;;;5011374;28;38886;-59
2022/04/29 08:13:22;;;;;;;;;;;11.00;92.20;;;;;;5014051;28;37933;-59
2022/04/29 08:15:49;;;;;;;;;;;11.10;91.90;;;;;;5011659;28;37752;-59
2022/04/29 08:18:17;;;;;;;;;;;11.00;91.80;;;;;;5012708;28;37793;-59
2022/04/29 08:20:44;;;;;;;;;;;10.90;91.90;;;;;;5012683;28;36650;-58
2022/04/29 08:23:11;;;;;;;;;;;10.80;91.40;;;;;;5013933;28;36311;-59
2022/04/29 08:25:39;;;;;;;;;;;10.80;91.80;;;;;;5010582;28;36582;-59
2022/04/29 08:28:07;;;;;;;;;;;10.80;92.60;;;;;;5011792;28;37847;-59
2022/04/29 08:30:34;;;;;;;;;;;10.80;93.00;;;;;;5011449;28;37761;-59
2022/04/29 08:33:02;;;;;;;;;;;10.80;92.80;;;;;;5005956;28;35407;-59
2022/04/29 08:35:30;;;;;;;;;;;10.90;92.10;;;;;;5012877;28;37408;-59
2022/04/29 08:37:57;;;;;;;;;;;10.90;91.50;;;;;;5013289;28;38191;-52
2022/04/29 08:40:24;;;;;;;;;;;10.80;91.80;;;;;;5013358;28;37353;-54
2022/04/29 08:42:53;;;;;;;;;;;10.80;92.30;;;;;;5014487;28;39093;-54
2022/04/29 08:45:22;;;;;;;;;;;10.80;92.70;;;;;;5012536;28;35877;-52
2022/04/29 08:47:49;;;;;;;;;;;10.90;92.40;;;;;;5013351;28;37233;-53
2022/04/29 08:50:17;;;;;;;;;;;10.80;92.30;;;;;;5009977;28;38911;-54
2022/04/29 08:52:48;;;;;;;;;;;10.90;92.50;;;;;;5012850;28;36491;-54
2022/04/29 09:00:48;;;;;;;;;;;11.20;91.70;;;;;;5011083;28;38775;-54
2022/04/29 09:03:16;;;;;;;;;;;11.30;91.80;;;;;;5010765;28;38530;-53
2022/04/29 09:05:44;;;;;;;;;;;11.20;91.50;;;;;;5010974;28;39134;-53
2022/04/29 09:08:12;;;;;;;;;;;11.10;90.40;;;;;;5012450;28;39350;-53
2022/04/29 09:10:47;;;;;;;;;;;11.10;90.20;;;;;;5011359;28;35867;-55
2022/04/29 09:13:15;;;;;;;;;;;11.00;90.10;;;;;;5015006;28;37528;-53
2022/04/29 09:15:50;;;;;;;;;;;11.00;90.00;;;;;;5015647;28;37668;-54
2022/04/29 09:18:34;;;;;;;;;;;11.00;88.90;;;;;;5014634;28;38512;-53
2022/04/29 09:21:04;;;;;;;;;;;11.00;88.90;;;;;;5015067;28;37742;-52
2022/04/29 09:23:31;;;;;;;;;;;11.00;90.60;;;;;;5016146;28;38530;-54
2022/04/29 09:26:01;;;;;;;;;;;11.00;90.50;;;;;;5009006;28;37340;-53
2022/04/29 09:28:28;;;;;;;;;;;11.10;90.60;;;;;;5013984;28;38741;-54
2022/04/29 09:30:57;;;;;;;;;;;11.10;89.80;;;;;;5009829;28;37835;-53
2022/04/29 09:33:25;;;;;;;;;;;11.10;90.70;;;;;;5014446;28;36982;-52
2022/04/29 09:35:53;;;;;;;;;;;11.10;90.60;;;;;;5012681;28;37665;-53
2022/04/29 09:41:06;;;;;;;;;;;11.00;91.10;;;;;;5015031;28;38652;-52
2022/04/29 09:43:34;;;;;;;;;;;10.90;90.90;;;;;;5013985;28;36523;-53
2022/04/29 09:46:15;;;;;;;;;;;10.90;90.80;;;;;;5014081;28;37881;-54
2022/04/29 09:48:52;;;;;;;;;;;10.80;90.60;;;;;;5014280;28;39337;-53
2022/04/29 09:51:34;;;;;;;;;;;10.80;91.00;;;;;;5014171;28;38531;-53
2022/04/29 09:54:08;;;;;;;;;;;10.80;90.60;;;;;;5007353;28;38197;-53
2022/04/29 09:56:35;;;;;;;;;;;10.80;91.00;;;;;;5012798;28;37873;-54
2022/04/29 09:59:02;;;;;;;;;;;10.70;90.60;;;;;;5013902;28;36974;-52
2022/04/29 10:01:31;;;;;;;;;;;10.70;91.00;;;;;;5013524;28;39956;-53
2022/04/29 10:03:59;;;;;;;;;;;10.70;90.60;;;;;;5013521;28;36517;-51
2022/04/29 10:06:28;;;;;;;;;;;10.70;90.80;;;;;;5012344;28;30514;-49
2022/04/29 10:08:58;;;;;;;;;;;10.80;90.90;;;;;;5013689;28;37947;-54
2022/04/29 10:11:26;;;;;;;;;;;10.70;91.30;;;;;;5010318;28;37126;-53
2022/04/29 10:13:53;;;;;;;;;;;10.70;90.70;;;;;;5013514;28;36044;-51
2022/04/29 10:16:20;;;;;;;;;;;10.70;90.10;;;;;;5014158;28;40180;-53
2022/04/29 10:21:38;;;;;;;;;;;10.80;90.40;;;;;;5014440;28;38692;-52
2022/04/29 10:24:05;;;;;;;;;;;10.80;90.40;;;;;;5014266;28;35470;-52
2022/04/29 10:26:32;;;;;;;;;;;10.80;90.20;;;;;;5014746;28;37966;-52
2022/04/29 10:29:00;;;;;;;;;;;10.70;90.50;;;;;;5014276;28;36748;-52
2022/04/29 10:31:28;;;;;;;;;;;10.60;90.10;;;;;;5013380;28;37878;-53
2022/04/29 10:34:16;;;;;;;;;;;10.50;90.60;;;;;;5015184;28;36806;-53
2022/04/29 10:36:46;;;;;;;;;;;10.60;90.70;;;;;;5012021;28;39125;-52
2022/04/29 10:39:18;;;;;;;;;;;10.60;90.80;;;;;;5013485;28;38433;-53
2022/04/29 10:41:58;;;;;;;;;;;10.60;90.90;;;;;;5013938;28;38149;-53
2022/04/29 10:44:25;;;;;;;;;;;10.60;90.90;;;;;;5012478;28;37123;-53
2022/04/29 10:46:52;;;;;;;;;;;10.70;90.30;;;;;;5007387;28;36686;-52
2022/04/29 10:49:22;;;;;;;;;;;10.70;90.50;;;;;;5012273;28;36736;-53
2022/04/29 10:51:49;;;;;;;;;;;10.80;90.60;;;;;;5013551;28;37826;-53
2022/04/29 10:54:36;;;;;;;;;;;10.80;90.10;;;;;;5013289;28;36476;-52
2022/04/29 10:57:07;;;;;;;;;;;10.80;89.60;;;;;;5013808;28;37975;-54
2022/04/29 10:59:49;;;;;;;;;;;10.90;90.00;;;;;;5013112;28;38030;-54
2022/04/29 11:02:23;;;;;;;;;;;10.90;88.80;;;;;;5011345;28;38149;-50
2022/04/29 11:04:51;;;;;;;;;;;10.90;88.10;;;;;;5011098;28;38228;-52
2022/04/29 11:07:33;;;;;;;;;;;11.00;88.00;;;;;;5013670;28;37562;-59
2022/04/29 11:10:00;;;;;;;;;;;11.00;88.90;;;;;;5010503;28;39038;-59
2022/04/29 11:12:32;;;;;;;;;;;11.00;87.90;;;;;;5012376;28;38479;-59
2022/04/29 11:15:09;;;;;;;;;;;11.10;88.30;;;;;;5013323;28;35525;-60
2022/04/29 11:17:37;;;;;;;;;;;11.10;86.60;;;;;;5006999;28;38417;-60
2022/04/29 11:20:14;;;;;;;;;;;11.20;88.90;;;;;;5008857;28;39042;-60
2022/04/29 11:25:25;;;;;;;;;;;11.30;85.10;;;;;;5012397;28;37802;-59
2022/04/29 11:27:54;;;;;;;;;;;11.30;84.70;;;;;;5012097;28;37481;-59
2022/04/29 11:30:21;;;;;;;;;;;11.30;85.30;;;;;;5011923;28;37356;-60
2022/04/29 11:32:48;;;;;;;;;;;11.30;86.70;;;;;;5010665;28;36883;-59
2022/04/29 11:35:15;;;;;;;;;;;11.40;87.50;;;;;;5008801;28;36246;-60
2022/04/29 11:37:44;;;;;;;;;;;11.40;87.40;;;;;;5010760;28;37500;-60
2022/04/29 11:40:14;;;;;;;;;;;11.20;86.90;;;;;;5009469;28;38594;-60
2022/04/29 11:42:49;;;;;;;;;;;11.30;87.10;;;;;;5010402;28;36071;-60
2022/04/29 11:45:20;;;;;;;;;;;11.30;87.00;;;;;;5013359;28;36428;-60
2022/04/29 11:47:47;;;;;;;;;;;11.30;86.60;;;;;;5013029;28;37487;-60
2022/04/29 11:50:14;;;;;;;;;;;11.30;85.20;;;;;;5013356;28;37782;-60
2022/04/29 11:52:41;;;;;;;;;;;11.30;87.50;;;;;;5011775;28;36938;-60
2022/04/29 11:55:13;;;;;;;;;;;11.40;88.30;;;;;;5012809;28;37679;-60
2022/04/29 11:57:44;;;;;;;;;;;11.50;88.30;;;;;;5011811;28;38202;-60
2022/04/29 12:00:21;;;;;;;;;;;11.50;85.80;;;;;;5011439;28;38096;-60
2022/04/29 12:02:50;;;;;;;;;;;11.60;87.40;;;;;;5011645;28;38985;-60
2022/04/29 12:05:17;;;;;;;;;;;11.60;89.40;;;;;;5012169;28;34995;-57
2022/04/29 12:07:46;;;;;;;;;;;11.70;86.40;;;;;;5014320;28;37565;-58
2022/04/29 12:10:17;;;;;;;;;;;11.70;86.80;;;;;;5012170;28;39073;-57
2022/04/29 12:12:46;;;;;;;;;;;11.70;85.40;;;;;;5012006;28;36113;-57
2022/04/29 12:15:14;;;;;;;;;;;11.70;85.70;;;;;;5011343;28;35758;-57
2022/04/29 12:17:41;;;;;;;;;;;11.60;84.10;;;;;;5012253;28;37024;-57
2022/04/29 12:20:15;;;;;;;;;;;11.60;84.00;;;;;;5012998;28;38916;-57
2022/04/29 12:22:42;;;;;;;;;;;11.60;87.70;;;;;;5012791;28;37234;-60
2022/04/29 12:25:27;;;;;;;;;;;11.60;86.10;;;;;;5015645;28;35995;-60
2022/04/29 12:28:12;;;;;;;;;;;11.60;85.60;;;;;;5016559;28;38800;-60
2022/04/29 12:36:11;;;;;;;;;;;11.60;84.40;;;;;;5016794;28;36618;-60
2022/04/29 12:38:41;;;;;;;;;;;11.60;85.50;;;;;;5016458;28;38461;-60
2022/04/29 12:41:16;;;;;;;;;;;11.60;86.70;;;;;;5016669;28;37790;-60
2022/04/29 12:43:43;;;;;;;;;;;11.80;87.30;;;;;;5017726;28;38884;-60
2022/04/29 12:46:14;;;;;;;;;;;11.80;86.30;;;;;;5015297;28;35216;-60
2022/04/29 12:48:45;;;;;;;;;;;11.80;85.30;;;;;;5017757;28;37468;-60
2022/04/29 12:51:23;;;;;;;;;;;11.70;85.90;;;;;;5014607;28;40131;-60
2022/04/29 12:53:51;;;;;;;;;;;11.70;85.40;;;;;;5015394;28;35583;-60
2022/04/29 12:56:24;;;;;;;;;;;11.80;86.80;;;;;;5014946;28;36161;-60
2022/04/29 12:58:51;;;;;;;;;;;11.80;85.60;;;;;;5013979;28;38634;-60
2022/04/29 13:01:18;;;;;;;;;;;11.80;87.10;;;;;;5014858;28;37354;-60
2022/04/29 13:03:49;;;;;;;;;;;11.90;85.30;;;;;;5014451;28;37469;-60
2022/04/29 13:06:17;;;;;;;;;;;11.90;86.50;;;;;;5017394;28;35645;-60
2022/04/29 13:08:46;;;;;;;;;;;11.90;84.90;;;;;;5016041;28;36556;-60
2022/04/29 13:11:17;;;;;;;;;;;11.90;86.00;;;;;;5015511;28;37632;-59
2022/04/29 13:13:44;;;;;;;;;;;11.90;85.90;;;;;;5016268;28;36087;-60
2022/04/29 13:16:14;;;;;;;;;;;11.80;84.20;;;;;;5010363;28;36064;-60
2022/04/29 13:18:42;;;;;;;;;;;11.80;84.40;;;;;;5015758;28;37635;-60
2022/04/29 13:21:11;;;;;;;;;;;11.70;84.90;;;;;;5015095;28;39197;-60
2022/04/29 13:23:39;;;;;;;;;;;11.70;83.50;;;;;;5016085;28;39587;-60
2022/04/29 13:26:08;;;;;;;;;;;11.70;82.80;;;;;;5014180;28;35828;-60
2022/04/29 13:28:37;;;;;;;;;;;11.70;84.50;;;;;;5015238;28;37633;-60
2022/04/29 13:31:05;;;;;;;;;;;11.70;85.20;;;;;;5015567;28;37710;-61
2022/04/29 13:33:32;;;;;;;;;;;11.70;85.80;;;;;;5015644;28;40235;-60
2022/04/29 13:35:59;;;;;;;;;;;11.70;85.50;;;;;;5012939;28;36358;-60
2022/04/29 13:38:26;;;;;;;;;;;11.60;85.40;;;;;;5013922;28;37766;-60
2022/04/29 13:40:54;;;;;;;;;;;11.60;85.10;;;;;;5016208;28;39506;-60
2022/04/29 13:43:22;;;;;;;;;;;11.70;85.80;;;;;;5016167;28;37576;-60
2022/04/29 13:45:49;;;;;;;;;;;11.70;86.20;;;;;;5015758;28;34458;-60
2022/04/29 13:48:16;;;;;;;;;;;11.80;86.10;;;;;;5015834;28;37806;-60
2022/04/29 13:50:43;;;;;;;;;;;11.70;85.90;;;;;;5013225;28;38098;-60
2022/04/29 13:53:13;;;;;;;;;;;11.80;88.30;;;;;;5015227;28;37224;-60
2022/04/29 13:55:41;;;;;;;;;;;11.90;86.80;;;;;;5014635;28;37257;-60
2022/04/29 13:58:08;;;;;;;;;;;11.80;86.40;;;;;;5015814;28;38006;-60
2022/04/29 14:00:37;;;;;;;;;;;11.80;87.00;;;;;;5014823;28;38924;-60
2022/04/29 14:03:04;;;;;;;;;;;11.80;87.00;;;;;;5014216;28;37385;-60
2022/04/29 14:05:32;;;;;;;;;;;11.70;87.60;;;;;;5007381;28;35860;-60
2022/04/29 14:07:59;;;;;;;;;;;11.80;87.50;;;;;;5012569;28;37891;-60
2022/04/29 14:10:26;;;;;;;;;;;11.70;87.10;;;;;;5012302;28;38860;-60
2022/04/29 14:12:53;;;;;;;;;;;11.60;86.80;;;;;;5013393;28;38136;-60
2022/04/29 14:15:20;;;;;;;;;;;11.60;88.10;;;;;;5015398;28;36455;-60
2022/04/29 14:17:49;;;;;;;;;;;11.50;88.40;;;;;;5014846;28;38469;-60
2022/04/29 14:20:16;;;;;;;;;;;11.40;88.60;;;;;;5014586;28;39001;-60
2022/04/29 14:22:44;;;;;;;;;;;11.30;90.00;;;;;;5016777;28;37254;-60
2022/04/29 14:25:12;;;;;;;;;;;11.30;90.30;;;;;;5015371;28;35166;-60
2022/04/29 14:27:40;;;;;;;;;;;11.30;91.00;;;;;;5014808;28;38674;-60
2022/04/29 14:30:08;;;;;;;;;;;11.30;90.20;;;;;;5015852;28;37765;-60
2022/04/29 14:32:35;;;;;;;;;;;11.30;90.20;;;;;;5014372;28;37588;-60
2022/04/29 14:35:05;;;;;;;;;;;11.30;91.20;;;;;;5014484;28;36409;-60
2022/04/29 14:37:32;;;;;;;;;;;11.40;90.80;;;;;;5012922;28;38884;-60
2022/04/29 14:39:59;;;;;;;;;;;11.30;90.20;;;;;;5014497;28;39488;-60
2022/04/29 14:42:27;;;;;;;;;;;11.30;90.10;;;;;;5011926;28;37124;-60
2022/04/29 14:44:54;;;;;;;;;;;11.20;90.50;;;;;;5014981;28;37411;-60
2022/04/29 14:47:21;;;;;;;;;;;11.20;90.90;;;;;;5013418;28;36462;-60
2022/04/29 14:49:51;;;;;;;;;;;11.10;90.90;;;;;;5013642;28;38553;-60
2022/04/29 14:52:19;;;;;;;;;;;11.10;90.80;;;;;;5014129;28;36883;-60
2022/04/29 14:54:49;;;;;;;;;;;11.00;90.60;;;;;;5014326;28;35288;-60
2022/04/29 14:57:16;;;;;;;;;;;10.90;90.60;;;;;;5015842;28;38807;-60
2022/04/29 14:59:43;;;;;;;;;;;10.90;90.80;;;;;;5013973;28;37922;-60
2022/04/29 15:02:10;;;;;;;;;;;10.80;90.90;;;;;;5013124;28;37378;-60
2022/04/29 15:04:38;;;;;;;;;;;10.70;90.90;;;;;;5013615;28;35327;-60
2022/04/29 15:07:05;;;;;;;;;;;10.80;91.70;;;;;;5012145;28;38127;-60